createdAt,value
2022-11-29T00:01:28.787Z,95192.81
2022-11-29T00:03:56.432Z,95200.34
2022-11-29T00:06:29.423Z,95189.78
2022-11-29T00:08:58.972Z,95198.09
2022-11-29T00:11:45.666Z,95196.06
2022-11-29T00:14:15.905Z,95202.97
2022-11-29T00:16:43.284Z,95169.44
2022-11-29T00:19:12.053Z,95172.50
2022-11-29T00:21:39.368Z,95197.72
2022-11-29T00:24:06.652Z,95215.19
2022-11-29T00:26:33.980Z,95209.50
2022-11-29T00:29:00.896Z,95208.28
2022-11-29T00:31:30.557Z,95205.44
2022-11-29T00:33:59.360Z,95210.09
2022-11-29T00:36:27.537Z,95205.41
2022-11-29T00:38:54.492Z,95200.13
2022-11-29T00:41:21.521Z,95199.94
2022-11-29T00:43:49.208Z,95175.75
2022-11-29T00:46:16.385Z,95176.34
2022-11-29T00:48:43.615Z,95175.97
2022-11-29T00:51:10.620Z,95203.59
2022-11-29T00:53:38.478Z,95190.78
2022-11-29T00:56:06.586Z,95195.06
2022-11-29T00:58:35.448Z,95200.94
2022-11-29T01:01:02.271Z,95206.66
2022-11-29T01:03:29.432Z,95190.19
2022-11-29T01:06:12.625Z,95205.81
2022-11-29T01:08:39.725Z,95196.66
2022-11-29T01:11:19.780Z,95200.13
2022-11-29T01:13:47.404Z,95191.19
2022-11-29T01:16:15.988Z,95195.25
2022-11-29T01:18:43.868Z,95200.75
2022-11-29T01:21:14.026Z,95194.63
2022-11-29T01:23:42.234Z,95195.06
2022-11-29T01:26:12.526Z,95192.00
2022-11-29T01:28:40.524Z,95184.69
2022-11-29T01:31:14.796Z,95190.78
2022-11-29T01:33:42.385Z,95180.63
2022-11-29T01:36:10.075Z,95191.41
2022-11-29T01:38:37.226Z,95180.63
2022-11-29T01:41:11.220Z,95155.63
2022-11-29T01:44:05.848Z,95179.22
2022-11-29T01:46:38.573Z,95159.69
2022-11-29T01:49:10.797Z,95171.28
2022-11-29T01:51:41.882Z,95170.47
2022-11-29T01:54:10.879Z,95172.31
2022-11-29T01:56:38.936Z,95146.06
2022-11-29T01:59:11.343Z,95160.69
2022-11-29T02:01:38.855Z,95153.00
2022-11-29T02:04:06.770Z,95159.06
2022-11-29T02:06:34.867Z,95162.94
2022-11-29T02:09:02.315Z,95153.16
2022-11-29T02:11:35.749Z,95150.94
2022-11-29T02:14:05.644Z,95160.50
2022-11-29T02:17:08.051Z,95162.31
2022-11-29T02:20:32.137Z,95162.94
2022-11-29T02:23:08.152Z,95160.50
2022-11-29T02:25:48.754Z,95161.31
2022-11-29T02:28:56.053Z,95161.31
2022-11-29T02:31:41.713Z,95158.06
2022-11-29T02:34:26.882Z,95161.09
2022-11-29T02:37:29.126Z,95159.28
2022-11-29T02:40:11.489Z,95167.00
2022-11-29T02:43:14.592Z,95155.63
2022-11-29T02:46:04.360Z,95169.03
2022-11-29T02:48:34.293Z,95175.16
2022-11-29T02:51:33.455Z,95147.47
2022-11-29T02:54:23.893Z,95169.03
2022-11-29T02:57:01.702Z,95163.75
2022-11-29T03:00:07.212Z,95166.41
2022-11-29T03:03:09.137Z,95159.69
2022-11-29T03:05:54.180Z,95160.50
2022-11-29T03:08:36.048Z,95158.47
2022-11-29T03:11:14.723Z,95171.06
2022-11-29T03:13:53.951Z,95170.25
2022-11-29T03:16:48.000Z,95101.78
2022-11-29T03:19:18.031Z,95179.22
2022-11-29T03:21:54.075Z,95172.91
2022-11-29T03:24:35.817Z,95164.56
2022-11-29T03:27:12.338Z,95160.50
2022-11-29T03:29:49.744Z,95162.53
2022-11-29T03:32:26.826Z,95177.78
2022-11-29T03:35:03.049Z,95175.53
2022-11-29T03:37:45.874Z,95181.03
2022-11-29T03:40:18.069Z,95172.91
2022-11-29T03:42:53.241Z,95176.56
2022-11-29T03:45:25.550Z,95182.44
2022-11-29T03:48:07.150Z,95180.41
2022-11-29T03:50:54.558Z,95168.22
2022-11-29T03:53:41.926Z,95132.25
2022-11-29T03:56:29.391Z,95168.22
2022-11-29T03:59:05.467Z,95181.44
2022-11-29T04:01:51.376Z,95180.81
2022-11-29T04:04:35.377Z,95173.50
2022-11-29T04:07:44.457Z,95168.00
2022-11-29T04:10:30.046Z,95162.09
2022-11-29T04:13:03.168Z,95176.38
2022-11-29T04:15:51.578Z,95173.31
2022-11-29T04:18:51.009Z,95182.06
2022-11-29T04:21:29.981Z,95182.66
2022-11-29T04:24:15.690Z,95183.69
2022-11-29T04:27:16.658Z,95180.84
2022-11-29T04:30:10.654Z,95186.53
2022-11-29T04:32:59.930Z,95179.00
2022-11-29T04:35:46.074Z,95184.28
2022-11-29T04:38:22.387Z,95191.00
2022-11-29T04:41:34.767Z,95190.59
2022-11-29T04:44:11.171Z,95179.44
2022-11-29T04:46:51.008Z,95177.78
2022-11-29T04:49:50.368Z,95189.97
2022-11-29T04:52:36.190Z,95183.06
2022-11-29T04:55:29.270Z,95179.00
2022-11-29T04:57:57.799Z,95180.41
2022-11-29T05:00:25.252Z,95178.41
2022-11-29T05:03:07.771Z,95161.53
2022-11-29T05:05:51.680Z,95175.34
2022-11-29T05:08:58.414Z,95177.19
2022-11-29T05:11:46.758Z,95183.06
2022-11-29T05:14:40.082Z,95171.69
2022-11-29T05:17:31.812Z,95175.94
2022-11-29T05:20:36.452Z,95180.03
2022-11-29T05:23:12.120Z,95180.03
2022-11-29T05:25:58.264Z,95170.47
2022-11-29T05:28:28.020Z,95185.28
2022-11-29T05:31:11.473Z,95188.75
2022-11-29T05:34:17.604Z,95182.25
2022-11-29T05:37:13.906Z,95180.81
2022-11-29T05:40:00.358Z,95175.16
2022-11-29T05:42:51.990Z,95189.38
2022-11-29T05:45:32.311Z,95201.56
2022-11-29T05:48:07.225Z,95200.75
2022-11-29T05:50:41.916Z,95190.38
2022-11-29T05:53:17.953Z,95199.34
2022-11-29T05:55:56.980Z,95186.94
2022-11-29T05:58:58.141Z,95186.94
2022-11-29T06:01:30.057Z,95193.63
2022-11-29T06:04:11.782Z,95182.88
2022-11-29T06:06:52.962Z,95198.72
2022-11-29T06:09:29.788Z,95190.19
2022-11-29T06:12:07.168Z,95187.34
2022-11-29T06:14:46.623Z,95184.28
2022-11-29T06:17:39.069Z,95189.97
2022-11-29T06:20:39.980Z,95198.72
2022-11-29T06:23:29.161Z,95194.03
2022-11-29T06:26:03.654Z,95197.47
2022-11-29T06:28:43.236Z,95194.44
2022-11-29T06:31:33.475Z,95193.81
2022-11-29T06:34:10.092Z,95184.06
2022-11-29T06:37:12.690Z,95191.16
2022-11-29T06:39:40.043Z,95187.69
2022-11-29T06:42:06.928Z,95190.56
2022-11-29T06:44:34.487Z,95194.19
2022-11-29T06:47:12.405Z,95194.19
2022-11-29T06:49:54.389Z,95193.78
2022-11-29T06:52:46.766Z,95190.97
2022-11-29T06:55:33.027Z,95195.03
2022-11-29T06:58:09.056Z,95206.44
2022-11-29T07:01:31.845Z,95199.47
2022-11-29T07:04:02.262Z,95202.53
2022-11-29T07:06:30.291Z,95205.97
2022-11-29T07:09:03.352Z,95199.03
2022-11-29T07:11:30.768Z,95205.53
2022-11-29T07:13:58.023Z,95194.34
2022-11-29T07:16:36.985Z,95200.66
2022-11-29T07:19:07.220Z,95199.59
2022-11-29T07:21:47.647Z,95200.47
2022-11-29T07:24:29.496Z,95203.47
2022-11-29T07:27:19.051Z,95210.16
2022-11-29T07:30:10.159Z,95169.69
2022-11-29T07:33:00.340Z,95212.94
2022-11-29T07:35:49.841Z,95199.31
2022-11-29T07:38:26.058Z,95209.88
2022-11-29T07:41:18.384Z,95211.06
2022-11-29T07:43:55.052Z,95214.28
2022-11-29T07:46:22.324Z,95195.78
2022-11-29T07:48:49.351Z,95192.31
2022-11-29T07:51:16.456Z,95186.44
2022-11-29T07:53:44.546Z,95211.19
2022-11-29T07:56:12.462Z,95205.63
2022-11-29T07:58:39.738Z,95194.28
2022-11-29T08:01:06.981Z,95202.16
2022-11-29T08:03:35.538Z,95185.72
2022-11-29T08:06:03.163Z,95209.16
2022-11-29T08:08:30.160Z,95194.09
2022-11-29T08:10:57.319Z,95202.50
2022-11-29T08:13:24.355Z,95201.28
2022-11-29T08:15:51.513Z,95202.94
2022-11-29T08:18:18.451Z,95211.88
2022-11-29T08:20:46.387Z,95206.94
2022-11-29T08:23:14.356Z,95209.38
2022-11-29T08:25:42.281Z,95214.22
2022-11-29T08:28:09.400Z,95197.97
2022-11-29T08:30:36.421Z,95212.81
2022-11-29T08:33:03.565Z,95197.75
2022-11-29T08:35:30.845Z,95216.44
2022-11-29T08:37:57.794Z,95215.41
2022-11-29T08:40:24.830Z,95203.59
2022-11-29T08:42:51.976Z,95207.59
2022-11-29T08:45:19.227Z,95213.13
2022-11-29T08:47:46.182Z,95219.72
2022-11-29T08:50:17.896Z,95207.06
2022-11-29T08:53:06.388Z,95223.28
2022-11-29T08:55:42.930Z,95230.34
2022-11-29T08:58:13.393Z,95225.06
2022-11-29T09:00:42.627Z,95213.13
2022-11-29T09:03:28.523Z,95226.34
2022-11-29T09:05:56.021Z,95210.84
2022-11-29T09:08:23.161Z,95217.97
2022-11-29T09:10:50.236Z,95211.03
2022-11-29T09:13:18.298Z,95213.13
2022-11-29T09:15:45.425Z,95201.13
2022-11-29T09:18:12.399Z,95203.78
2022-11-29T09:20:43.988Z,95213.94
2022-11-29T09:23:12.109Z,95202.75
2022-11-29T09:25:39.363Z,95211.50
2022-11-29T09:28:07.579Z,95199.28
2022-11-29T09:30:38.033Z,95203.50
2022-11-29T09:33:05.285Z,95200.69
2022-11-29T09:35:33.452Z,95181.78
2022-11-29T09:38:00.793Z,95177.91
2022-11-29T09:40:51.275Z,95184.34
2022-11-29T09:43:29.854Z,95149.38
2022-11-29T09:46:06.098Z,95160.88
2022-11-29T09:48:42.152Z,95171.94
2022-11-29T09:51:24.314Z,95169.03
2022-11-29T09:54:11.324Z,95168.16
2022-11-29T09:56:46.361Z,95164.31
2022-11-29T09:59:26.024Z,95166.09
2022-11-29T10:02:05.783Z,95133.94
2022-11-29T10:04:40.480Z,95131.13
2022-11-29T10:07:35.544Z,95153.22
2022-11-29T10:10:09.246Z,95144.91
2022-11-29T10:13:08.381Z,95146.25
2022-11-29T10:15:39.638Z,95151.81
2022-11-29T10:18:28.355Z,95141.34
2022-11-29T10:20:58.596Z,95147.53
2022-11-29T10:23:41.827Z,95123.91
2022-11-29T10:26:12.892Z,95141.03
2022-11-29T10:28:44.991Z,95138.97
2022-11-29T10:31:15.248Z,95141.84
2022-11-29T10:33:44.060Z,95129.16
2022-11-29T10:36:26.934Z,95132.81
2022-11-29T10:39:01.671Z,95116.41
2022-11-29T10:41:28.970Z,95130.88
2022-11-29T10:43:59.040Z,95132.53
2022-11-29T10:46:34.908Z,95131.94
2022-11-29T10:49:05.341Z,95076.28
2022-11-29T10:51:33.799Z,95137.53
2022-11-29T10:54:26.410Z,95136.13
2022-11-29T10:56:56.612Z,95124.56
2022-11-29T10:59:29.844Z,95136.38
2022-11-29T11:01:58.729Z,95119.03
2022-11-29T11:04:34.192Z,95124.63
2022-11-29T11:07:04.357Z,95126.25
2022-11-29T11:09:44.232Z,95115.03
2022-11-29T11:12:14.601Z,95116.97
2022-11-29T11:14:42.984Z,95113.53
2022-11-29T11:17:30.282Z,95125.19
2022-11-29T11:20:05.881Z,95117.81
2022-11-29T11:22:34.300Z,95117.81
2022-11-29T11:25:08.549Z,95125.78
2022-11-29T11:27:42.292Z,95120.69
2022-11-29T11:30:22.564Z,95093.69
2022-11-29T11:33:08.643Z,95139.09
2022-11-29T11:35:37.264Z,95138.72
2022-11-29T11:38:04.870Z,95134.16
2022-11-29T11:40:32.091Z,95132.09
2022-11-29T11:43:03.208Z,95143.44
2022-11-29T11:45:34.175Z,95142.25
2022-11-29T11:48:13.521Z,95117.16
2022-11-29T11:50:40.669Z,95142.84
2022-11-29T11:53:18.225Z,95136.44
2022-11-29T11:56:04.339Z,95143.22
2022-11-29T11:58:36.932Z,95136.59
2022-11-29T12:01:13.341Z,95140.94
2022-11-29T12:04:18.509Z,95124.91
2022-11-29T12:06:45.585Z,95143.84
2022-11-29T12:09:27.500Z,95130.78
2022-11-29T12:12:07.619Z,95131.06
2022-11-29T12:14:47.464Z,95131.91
2022-11-29T12:17:23.141Z,95134.44
2022-11-29T12:20:04.826Z,95107.84
2022-11-29T12:22:45.281Z,95122.34
2022-11-29T12:25:24.701Z,95120.63
2022-11-29T12:27:51.945Z,95120.72
2022-11-29T12:30:19.795Z,95125.81
2022-11-29T12:33:20.164Z,95127.44
2022-11-29T12:35:47.046Z,95126.50
2022-11-29T12:38:24.093Z,95125.78
2022-11-29T12:41:23.627Z,95095.03
2022-11-29T12:43:53.343Z,95130.00
2022-11-29T12:46:20.303Z,95132.78
2022-11-29T12:49:00.141Z,95128.50
2022-11-29T12:51:57.097Z,95123.47
2022-11-29T12:54:54.338Z,95118.47
2022-11-29T12:57:36.525Z,95124.59
2022-11-29T13:00:16.970Z,95135.25
2022-11-29T13:02:59.302Z,95133.88
2022-11-29T13:05:53.797Z,95121.47
2022-11-29T13:08:23.830Z,95133.53
2022-11-29T13:11:15.614Z,95136.19
2022-11-29T13:14:40.979Z,95142.09
2022-11-29T13:17:01.912Z,95138.41
2022-11-29T13:19:53.867Z,95122.34
2022-11-29T13:22:42.324Z,95146.31
2022-11-29T13:25:18.638Z,95148.72
2022-11-29T13:28:00.184Z,95147.50
2022-11-29T13:30:27.847Z,95144.09
2022-11-29T13:33:19.661Z,95149.72
2022-11-29T13:36:05.438Z,95145.00
2022-11-29T13:38:53.889Z,95138.06
2022-11-29T13:41:48.459Z,95145.00
2022-11-29T13:44:44.130Z,95149.66
2022-11-29T13:47:14.547Z,95139.47
2022-11-29T13:50:03.857Z,95145.22
2022-11-29T13:52:44.805Z,95144.63
2022-11-29T13:55:11.950Z,95141.38
2022-11-29T13:58:19.508Z,95141.84
2022-11-29T14:00:46.714Z,95139.53
2022-11-29T14:03:28.932Z,95146.25
2022-11-29T14:06:02.047Z,95147.50
2022-11-29T14:08:55.045Z,95138.81
2022-11-29T14:11:25.522Z,95153.69
2022-11-29T14:14:01.129Z,95139.88
2022-11-29T14:16:43.748Z,95139.63
2022-11-29T14:19:10.668Z,95141.88
2022-11-29T14:21:56.489Z,95141.25
2022-11-29T14:24:32.311Z,95144.25
2022-11-29T14:27:19.809Z,95149.78
2022-11-29T14:29:49.952Z,95150.81
2022-11-29T14:32:24.819Z,95155.09
2022-11-29T14:35:03.999Z,95132.94
2022-11-29T14:37:44.294Z,95147.63
2022-11-29T14:40:24.004Z,95135.06
2022-11-29T14:42:52.862Z,95122.97
2022-11-29T14:45:28.139Z,95156.38
2022-11-29T14:47:55.925Z,95149.44
2022-11-29T14:50:42.403Z,95134.38
2022-11-29T14:53:30.528Z,95154.66
2022-11-29T14:56:29.334Z,95153.25
2022-11-29T14:59:34.191Z,95154.88
2022-11-29T15:02:06.593Z,95154.28
2022-11-29T15:04:35.629Z,95152.50
2022-11-29T15:07:03.966Z,95150.69
2022-11-29T15:09:33.470Z,95141.72
2022-11-29T15:12:08.361Z,95150.88
2022-11-29T15:15:00.845Z,95132.06
2022-11-29T15:17:54.734Z,95142.75
2022-11-29T15:20:55.018Z,95144.19
2022-11-29T15:23:21.972Z,95135.78
2022-11-29T15:25:54.367Z,95136.00
2022-11-29T15:28:30.841Z,95131.53
2022-11-29T15:31:05.834Z,95127.88
2022-11-29T15:33:34.707Z,95141.72
2022-11-29T15:36:07.998Z,95146.13
2022-11-29T15:38:45.505Z,95139.63
2022-11-29T15:41:34.796Z,95144.72
2022-11-29T15:44:03.367Z,95144.66
2022-11-29T15:46:32.851Z,95152.94
2022-11-29T15:49:38.707Z,95144.59
2022-11-29T15:52:14.437Z,95158.88
2022-11-29T15:54:54.082Z,95151.94
2022-11-29T15:57:29.403Z,95116.44
2022-11-29T16:00:01.236Z,95138.19
2022-11-29T16:02:33.525Z,95096.53
2022-11-29T16:05:03.760Z,95150.78
2022-11-29T16:07:34.447Z,95149.19
2022-11-29T16:10:12.901Z,95142.66
2022-11-29T16:12:53.215Z,95157.53
2022-11-29T16:15:32.610Z,95146.59
2022-11-29T16:18:05.918Z,95144.16
2022-11-29T16:20:33.181Z,95156.91
2022-11-29T16:23:12.077Z,95139.66
2022-11-29T16:25:52.171Z,95126.66
2022-11-29T16:28:19.391Z,95140.84
2022-11-29T16:30:46.397Z,95150.16
2022-11-29T16:33:24.721Z,95151.78
2022-11-29T16:36:02.509Z,95149.91
2022-11-29T16:38:29.541Z,95145.22
2022-11-29T16:41:20.086Z,95149.28
2022-11-29T16:43:54.089Z,95137.53
2022-11-29T16:46:21.050Z,95151.94
2022-11-29T16:48:50.197Z,95120.31
2022-11-29T16:51:22.833Z,95154.66
2022-11-29T16:53:53.784Z,95133.13
2022-11-29T16:56:26.535Z,95144.91
2022-11-29T16:59:26.359Z,95135.19
2022-11-29T17:01:48.054Z,95143.34
2022-11-29T17:04:23.484Z,95143.75
2022-11-29T17:06:56.282Z,95142.19
2022-11-29T17:09:29.020Z,95152.53
2022-11-29T17:11:57.122Z,95129.03
2022-11-29T17:14:24.303Z,95142.06
2022-11-29T17:16:52.229Z,95138.25
2022-11-29T17:19:23.972Z,95157.19
2022-11-29T17:21:52.980Z,95161.63
2022-11-29T17:24:23.431Z,95163.91
2022-11-29T17:26:50.819Z,95170.38
2022-11-29T17:29:18.453Z,95163.66
2022-11-29T17:31:46.529Z,95171.19
2022-11-29T17:34:13.832Z,95147.41
2022-11-29T17:36:41.346Z,95175.47
2022-11-29T17:39:08.920Z,95039.41
2022-11-29T17:41:36.263Z,95185.84
2022-11-29T17:44:04.102Z,95185.84
2022-11-29T17:46:33.663Z,95183.19
2022-11-29T17:49:01.864Z,95187.06
2022-11-29T17:51:51.139Z,95198.06
2022-11-29T17:54:17.008Z,95190.31
2022-11-29T17:56:44.099Z,95200.69
2022-11-29T17:59:11.003Z,95175.03
2022-11-29T18:01:37.985Z,95195.16
2022-11-29T18:04:06.565Z,95204.06
2022-11-29T18:06:37.082Z,95193.88
2022-11-29T18:09:06.047Z,95200.16
2022-11-29T18:11:44.978Z,95144.09
2022-11-29T18:14:19.838Z,95191.03
2022-11-29T18:16:47.501Z,95203.19
2022-11-29T18:19:17.579Z,95202.59
2022-11-29T18:21:45.338Z,95182.88
2022-11-29T18:24:12.684Z,95187.78
2022-11-29T18:26:39.863Z,95165.44
2022-11-29T18:29:07.572Z,95185.97
2022-11-29T18:31:37.355Z,95184.56
2022-11-29T18:34:07.194Z,95185.59
2022-11-29T18:36:43.205Z,95160.19
2022-11-29T18:39:14.128Z,95137.66
2022-11-29T18:41:48.873Z,95169.19
2022-11-29T18:44:19.134Z,95169.41
2022-11-29T18:46:46.307Z,95181.56
2022-11-29T18:49:15.488Z,95083.50
2022-11-29T18:51:45.053Z,95137.91
2022-11-29T18:54:16.524Z,95148.50
2022-11-29T18:56:45.954Z,95136.13
2022-11-29T18:59:16.931Z,95163.97
2022-11-29T19:01:46.275Z,95163.72
2022-11-29T19:04:16.567Z,95177.50
2022-11-29T19:06:43.700Z,95177.75
2022-11-29T19:09:17.115Z,95172.25
2022-11-29T19:11:44.175Z,95182.38
2022-11-29T19:14:12.943Z,95094.84
2022-11-29T19:16:42.957Z,95183.84
2022-11-29T19:19:10.349Z,95136.13
2022-11-29T19:21:39.577Z,95181.41
2022-11-29T19:24:13.686Z,95185.84
2022-11-29T19:26:44.592Z,95177.75
2022-11-29T19:29:15.631Z,95169.84
2022-11-29T19:31:42.914Z,95194.00
2022-11-29T19:34:10.325Z,95173.06
2022-11-29T19:36:43.651Z,95200.50
2022-11-29T19:39:13.419Z,95169.63
2022-11-29T19:41:43.275Z,95191.75
2022-11-29T19:44:10.950Z,95187.53
2022-11-29T19:46:44.001Z,95194.81
2022-11-29T19:49:12.296Z,95182.03
2022-11-29T19:51:40.125Z,95172.28
2022-11-29T19:54:09.539Z,95182.81
2022-11-29T19:56:36.917Z,95190.34
2022-11-29T19:59:04.131Z,95180.41
2022-11-29T20:01:39.817Z,95182.22
2022-11-29T20:04:08.506Z,95185.44
2022-11-29T20:06:36.043Z,95177.94
2022-11-29T20:09:03.126Z,95195.81
2022-11-29T20:11:30.432Z,95187.06
2022-11-29T20:14:02.931Z,95140.53
2022-11-29T20:16:30.978Z,95187.47
2022-11-29T20:18:58.941Z,95187.06
2022-11-29T20:21:28.841Z,95191.31
2022-11-29T20:24:01.015Z,95192.56
2022-11-29T20:26:29.809Z,95178.13
2022-11-29T20:28:57.325Z,95177.91
2022-11-29T20:31:24.759Z,95176.50
2022-11-29T20:33:54.442Z,95166.34
2022-11-29T20:36:51.231Z,95175.66
2022-11-29T20:39:37.116Z,95178.91
2022-11-29T20:42:29.530Z,95176.69
2022-11-29T20:45:04.086Z,95165.47
2022-11-29T20:47:43.818Z,95175.88
2022-11-29T20:50:23.592Z,95167.09
2022-11-29T20:53:03.121Z,95170.16
2022-11-29T20:55:30.213Z,95166.28
2022-11-29T20:57:57.147Z,95167.72
2022-11-29T21:00:24.415Z,95159.38
2022-11-29T21:02:51.678Z,95170.34
2022-11-29T21:05:19.064Z,95158.94
2022-11-29T21:07:46.791Z,95162.63
2022-11-29T21:10:17.847Z,95166.50
2022-11-29T21:12:45.859Z,95142.31
2022-11-29T21:15:14.461Z,95153.25
2022-11-29T21:17:43.385Z,95156.50
2022-11-29T21:20:19.055Z,95157.91
2022-11-29T21:23:04.302Z,95163.41
2022-11-29T21:25:34.154Z,95157.69
2022-11-29T21:41:48.255Z,95157.00
2022-11-29T21:44:15.317Z,95152.44
2022-11-29T21:46:42.391Z,95156.41
2022-11-29T21:49:09.907Z,95165.66
2022-11-29T21:51:37.084Z,95156.31
2022-11-29T21:54:04.251Z,95146.41
2022-11-29T21:56:32.004Z,95158.41
2022-11-29T21:59:00.192Z,95137.94
2022-11-29T22:01:28.028Z,95144.06
2022-11-29T22:03:55.748Z,95116.25
2022-11-29T22:06:41.805Z,95154.06
2022-11-29T22:09:09.072Z,95150.81
2022-11-29T22:11:36.165Z,95148.16
2022-11-29T22:14:13.661Z,95118.50
2022-11-29T22:16:54.137Z,95149.44
2022-11-29T22:19:22.383Z,95151.25
2022-11-29T22:21:54.442Z,95119.78
2022-11-29T22:24:23.776Z,95154.72
2022-11-29T22:26:52.001Z,95146.78
2022-11-29T22:29:19.646Z,95139.03
2022-11-29T22:31:53.778Z,95127.50
2022-11-29T22:34:23.072Z,95134.97
2022-11-29T22:36:49.958Z,95142.09
2022-11-29T22:39:17.156Z,95128.25
2022-11-29T22:41:46.115Z,95139.03
2022-11-29T22:44:16.563Z,95125.00
2022-11-29T22:46:43.870Z,95134.13
2022-11-29T22:49:10.940Z,95134.94
2022-11-29T22:51:38.863Z,95145.31
2022-11-29T22:54:08.696Z,95117.88
2022-11-29T22:56:38.713Z,95104.44
2022-11-29T22:59:06.091Z,95140.63
2022-11-29T23:01:35.673Z,95131.06
2022-11-29T23:04:06.168Z,95119.09
2022-11-29T23:06:35.968Z,95131.66
2022-11-29T23:09:10.873Z,95131.84
2022-11-29T23:11:38.022Z,95132.03
2022-11-29T23:14:04.912Z,95124.72
2022-11-29T23:16:33.109Z,95132.25
2022-11-29T23:19:00.919Z,95132.22
2022-11-29T23:21:33.451Z,95132.22
2022-11-29T23:24:01.575Z,95127.13
2022-11-29T23:26:37.684Z,95116.94
2022-11-29T23:29:07.265Z,95127.94
2022-11-29T23:31:34.491Z,95120.19
2022-11-29T23:34:02.939Z,95112.50
2022-11-29T23:36:29.887Z,95124.91
2022-11-29T23:38:56.797Z,95133.22
2022-11-29T23:41:23.781Z,95127.94
2022-11-29T23:43:50.682Z,95128.56
2022-11-29T23:46:20.727Z,95118.59
2022-11-29T23:48:48.652Z,95136.31
2022-11-29T23:51:16.607Z,95132.03
2022-11-29T23:53:43.865Z,95133.06
2022-11-29T23:56:16.305Z,95124.91
2022-11-29T23:58:44.389Z,95126.16
